sensor_id;sensor_type;location;lat;lon;timestamp;P1;durP1;ratioP1;P2;durP2;ratioP2
8191;SDS011;4137;49.764;8.652;2022-07-22T00:01:20;7.88;;;7.35;;
8191;SDS011;4137;49.764;8.652;2022-07-22T00:03:46;8.25;;;7.72;;
8191;SDS011;4137;49.764;8.652;2022-07-22T00:06:12;8.73;;;8.07;;
8191;SDS011;4137;49.764;8.652;2022-07-22T00:08:38;8.07;;;7.43;;
8191;SDS011;4137;49.764;8.652;2022-07-22T00:11:04;8.20;;;7.57;;
8191;SDS011;4137;49.764;8.652;2022-07-22T00:13:30;8.88;;;8.18;;
8191;SDS011;4137;49.764;8.652;2022-07-22T00:15:57;8.60;;;8.10;;
8191;SDS011;4137;49.764;8.652;2022-07-22T00:18:23;8.65;;;8.05;;
8191;SDS011;4137;49.764;8.652;2022-07-22T00:20:49;8.55;;;7.65;;
8191;SDS011;4137;49.764;8.652;2022-07-22T00:23:15;7.75;;;7.25;;
8191;SDS011;4137;49.764;8.652;2022-07-22T00:25:41;8.07;;;7.38;;
8191;SDS011;4137;49.764;8.652;2022-07-22T00:28:07;8.48;;;7.88;;
8191;SDS011;4137;49.764;8.652;2022-07-22T00:30:33;8.40;;;7.80;;
8191;SDS011;4137;49.764;8.652;2022-07-22T00:32:59;8.68;;;7.88;;
8191;SDS011;4137;49.764;8.652;2022-07-22T00:35:25;8.40;;;7.78;;
8191;SDS011;4137;49.764;8.652;2022-07-22T00:37:51;8.85;;;8.25;;
8191;SDS011;4137;49.764;8.652;2022-07-22T00:40:17;8.90;;;8.23;;
8191;SDS011;4137;49.764;8.652;2022-07-22T00:42:43;8.35;;;7.85;;
8191;SDS011;4137;49.764;8.652;2022-07-22T00:45:09;8.57;;;7.97;;
8191;SDS011;4137;49.764;8.652;2022-07-22T00:47:36;8.68;;;8.10;;
8191;SDS011;4137;49.764;8.652;2022-07-22T00:50:02;9.05;;;8.20;;
8191;SDS011;4137;49.764;8.652;2022-07-22T00:52:29;8.68;;;7.88;;
8191;SDS011;4137;49.764;8.652;2022-07-22T00:54:56;9.30;;;8.52;;
8191;SDS011;4137;49.764;8.652;2022-07-22T00:57:24;7.75;;;7.35;;
8191;SDS011;4137;49.764;8.652;2022-07-22T00:59:50;8.32;;;7.93;;
8191;SDS011;4137;49.764;8.652;2022-07-22T01:02:16;9.40;;;8.75;;
8191;SDS011;4137;49.764;8.652;2022-07-22T01:04:42;8.30;;;7.90;;
8191;SDS011;4137;49.764;8.652;2022-07-22T01:07:08;9.13;;;8.43;;
8191;SDS011;4137;49.764;8.652;2022-07-22T01:09:34;8.20;;;7.70;;
8191;SDS011;4137;49.764;8.652;2022-07-22T01:12:01;8.55;;;8.05;;
8191;SDS011;4137;49.764;8.652;2022-07-22T01:14:28;9.93;;;7.90;;
8191;SDS011;4137;49.764;8.652;2022-07-22T01:16:54;7.90;;;7.40;;
8191;SDS011;4137;49.764;8.652;2022-07-22T01:19:20;8.77;;;8.13;;
8191;SDS011;4137;49.764;8.652;2022-07-22T01:21:46;9.43;;;8.82;;
8191;SDS011;4137;49.764;8.652;2022-07-22T01:24:12;8.25;;;7.85;;
8191;SDS011;4137;49.764;8.652;2022-07-22T01:26:38;8.63;;;8.10;;
8191;SDS011;4137;49.764;8.652;2022-07-22T01:29:04;9.65;;;8.77;;
8191;SDS011;4137;49.764;8.652;2022-07-22T01:31:30;8.68;;;8.15;;
8191;SDS011;4137;49.764;8.652;2022-07-22T01:33:56;9.13;;;8.43;;
8191;SDS011;4137;49.764;8.652;2022-07-22T01:36:23;8.68;;;8.10;;
8191;SDS011;4137;49.764;8.652;2022-07-22T01:38:49;9.20;;;8.57;;
8191;SDS011;4137;49.764;8.652;2022-07-22T01:41:15;9.68;;;8.48;;
8191;SDS011;4137;49.764;8.652;2022-07-22T01:43:41;8.65;;;8.02;;
8191;SDS011;4137;49.764;8.652;2022-07-22T01:46:07;9.45;;;8.77;;
8191;SDS011;4137;49.764;8.652;2022-07-22T01:48:33;8.95;;;8.15;;
8191;SDS011;4137;49.764;8.652;2022-07-22T01:50:59;9.57;;;8.95;;
8191;SDS011;4137;49.764;8.652;2022-07-22T01:53:25;9.55;;;8.63;;
8191;SDS011;4137;49.764;8.652;2022-07-22T01:55:51;8.35;;;7.68;;
8191;SDS011;4137;49.764;8.652;2022-07-22T01:58:17;8.95;;;8.40;;
8191;SDS011;4137;49.764;8.652;2022-07-22T02:00:44;9.05;;;8.40;;
8191;SDS011;4137;49.764;8.652;2022-07-22T02:03:10;9.20;;;8.50;;
8191;SDS011;4137;49.764;8.652;2022-07-22T02:05:36;9.88;;;8.98;;
8191;SDS011;4137;49.764;8.652;2022-07-22T02:08:03;9.13;;;8.52;;
8191;SDS011;4137;49.764;8.652;2022-07-22T02:10:29;9.13;;;8.43;;
8191;SDS011;4137;49.764;8.652;2022-07-22T02:12:56;9.82;;;8.93;;
8191;SDS011;4137;49.764;8.652;2022-07-22T02:15:22;9.32;;;8.60;;
8191;SDS011;4137;49.764;8.652;2022-07-22T02:17:48;9.77;;;9.02;;
8191;SDS011;4137;49.764;8.652;2022-07-22T02:20:14;9.50;;;8.88;;
8191;SDS011;4137;49.764;8.652;2022-07-22T02:22:41;9.55;;;8.98;;
8191;SDS011;4137;49.764;8.652;2022-07-22T02:25:07;10.18;;;9.38;;
8191;SDS011;4137;49.764;8.652;2022-07-22T02:27:33;10.30;;;9.43;;
8191;SDS011;4137;49.764;8.652;2022-07-22T02:29:59;9.98;;;9.02;;
8191;SDS011;4137;49.764;8.652;2022-07-22T02:32:25;9.32;;;8.73;;
8191;SDS011;4137;49.764;8.652;2022-07-22T02:34:52;9.55;;;8.82;;
8191;SDS011;4137;49.764;8.652;2022-07-22T02:37:18;9.25;;;8.65;;
8191;SDS011;4137;49.764;8.652;2022-07-22T02:39:44;11.45;;;10.45;;
8191;SDS011;4137;49.764;8.652;2022-07-22T02:42:10;11.00;;;9.98;;
8191;SDS011;4137;49.764;8.652;2022-07-22T02:44:36;10.68;;;9.57;;
8191;SDS011;4137;49.764;8.652;2022-07-22T02:47:02;11.77;;;9.57;;
8191;SDS011;4137;49.764;8.652;2022-07-22T02:49:28;9.93;;;9.13;;
8191;SDS011;4137;49.764;8.652;2022-07-22T02:51:55;9.30;;;8.70;;
8191;SDS011;4137;49.764;8.652;2022-07-22T02:54:21;9.65;;;9.05;;
8191;SDS011;4137;49.764;8.652;2022-07-22T02:56:47;10.88;;;10.10;;
8191;SDS011;4137;49.764;8.652;2022-07-22T02:59:13;9.73;;;9.02;;
8191;SDS011;4137;49.764;8.652;2022-07-22T03:01:39;10.15;;;9.30;;
8191;SDS011;4137;49.764;8.652;2022-07-22T03:04:05;10.20;;;9.38;;
8191;SDS011;4137;49.764;8.652;2022-07-22T03:06:31;10.45;;;9.48;;
8191;SDS011;4137;49.764;8.652;2022-07-22T03:08:57;10.85;;;10.05;;
8191;SDS011;4137;49.764;8.652;2022-07-22T03:11:23;9.93;;;9.23;;
8191;SDS011;4137;49.764;8.652;2022-07-22T03:13:49;10.40;;;9.63;;
8191;SDS011;4137;49.764;8.652;2022-07-22T03:16:15;9.70;;;8.95;;
8191;SDS011;4137;49.764;8.652;2022-07-22T03:18:41;10.18;;;9.43;;
8191;SDS011;4137;49.764;8.652;2022-07-22T03:21:07;10.95;;;10.07;;
8191;SDS011;4137;49.764;8.652;2022-07-22T03:23:33;10.88;;;9.80;;
8191;SDS011;4137;49.764;8.652;2022-07-22T03:25:59;10.10;;;9.30;;
8191;SDS011;4137;49.764;8.652;2022-07-22T03:28:25;10.55;;;9.65;;
8191;SDS011;4137;49.764;8.652;2022-07-22T03:30:52;10.80;;;9.90;;
8191;SDS011;4137;49.764;8.652;2022-07-22T03:33:18;10.27;;;9.38;;
8191;SDS011;4137;49.764;8.652;2022-07-22T03:35:44;10.50;;;9.60;;
8191;SDS011;4137;49.764;8.652;2022-07-22T03:38:10;9.88;;;9.13;;
8191;SDS011;4137;49.764;8.652;2022-07-22T03:40:36;10.88;;;10.05;;
8191;SDS011;4137;49.764;8.652;2022-07-22T03:43:02;10.77;;;9.88;;
8191;SDS011;4137;49.764;8.652;2022-07-22T03:45:28;10.73;;;9.88;;
8191;SDS011;4137;49.764;8.652;2022-07-22T03:47:54;10.52;;;9.55;;
8191;SDS011;4137;49.764;8.652;2022-07-22T03:50:22;11.05;;;10.25;;
8191;SDS011;4137;49.764;8.652;2022-07-22T03:52:48;11.45;;;10.27;;
8191;SDS011;4137;49.764;8.652;2022-07-22T03:55:14;10.40;;;9.52;;
8191;SDS011;4137;49.764;8.652;2022-07-22T03:57:40;10.73;;;9.75;;
8191;SDS011;4137;49.764;8.652;2022-07-22T04:00:07;11.07;;;10.05;;
8191;SDS011;4137;49.764;8.652;2022-07-22T04:02:33;10.27;;;9.40;;
8191;SDS011;4137;49.764;8.652;2022-07-22T04:04:59;10.57;;;9.57;;
8191;SDS011;4137;49.764;8.652;2022-07-22T04:07:25;10.57;;;9.77;;
8191;SDS011;4137;49.764;8.652;2022-07-22T04:09:51;10.48;;;9.50;;
8191;SDS011;4137;49.764;8.652;2022-07-22T04:12:29;10.25;;;9.45;;
8191;SDS011;4137;49.764;8.652;2022-07-22T04:14:55;10.77;;;9.82;;
8191;SDS011;4137;49.764;8.652;2022-07-22T04:17:21;10.43;;;9.60;;
8191;SDS011;4137;49.764;8.652;2022-07-22T04:19:47;9.35;;;8.65;;
8191;SDS011;4137;49.764;8.652;2022-07-22T04:22:13;10.52;;;9.50;;
8191;SDS011;4137;49.764;8.652;2022-07-22T04:24:39;9.40;;;8.80;;
8191;SDS011;4137;49.764;8.652;2022-07-22T04:27:05;9.48;;;8.80;;
8191;SDS011;4137;49.764;8.652;2022-07-22T04:29:31;10.13;;;9.43;;
8191;SDS011;4137;49.764;8.652;2022-07-22T04:31:57;9.50;;;8.80;;
8191;SDS011;4137;49.764;8.652;2022-07-22T04:34:23;10.07;;;9.00;;
8191;SDS011;4137;49.764;8.652;2022-07-22T04:36:49;9.82;;;9.10;;
8191;SDS011;4137;49.764;8.652;2022-07-22T04:39:15;9.73;;;8.95;;
8191;SDS011;4137;49.764;8.652;2022-07-22T04:41:42;10.60;;;9.52;;
8191;SDS011;4137;49.764;8.652;2022-07-22T04:44:09;9.00;;;8.25;;
8191;SDS011;4137;49.764;8.652;2022-07-22T04:46:35;10.18;;;8.63;;
8191;SDS011;4137;49.764;8.652;2022-07-22T04:49:01;9.77;;;8.98;;
8191;SDS011;4137;49.764;8.652;2022-07-22T04:51:27;9.02;;;8.48;;
8191;SDS011;4137;49.764;8.652;2022-07-22T04:53:54;9.32;;;8.52;;
8191;SDS011;4137;49.764;8.652;2022-07-22T04:56:20;9.50;;;8.70;;
8191;SDS011;4137;49.764;8.652;2022-07-22T04:58:46;9.07;;;8.30;;
8191;SDS011;4137;49.764;8.652;2022-07-22T05:01:13;9.45;;;8.45;;
8191;SDS011;4137;49.764;8.652;2022-07-22T05:03:39;10.10;;;9.30;;
8191;SDS011;4137;49.764;8.652;2022-07-22T05:06:06;9.52;;;8.77;;
8191;SDS011;4137;49.764;8.652;2022-07-22T05:08:32;9.77;;;8.88;;
8191;SDS011;4137;49.764;8.652;2022-07-22T05:10:58;10.10;;;9.10;;
8191;SDS011;4137;49.764;8.652;2022-07-22T05:13:24;9.20;;;8.60;;
8191;SDS011;4137;49.764;8.652;2022-07-22T05:15:50;10.02;;;9.05;;
8191;SDS011;4137;49.764;8.652;2022-07-22T05:18:17;9.93;;;9.13;;
8191;SDS011;4137;49.764;8.652;2022-07-22T05:20:43;8.73;;;8.02;;
8191;SDS011;4137;49.764;8.652;2022-07-22T05:23:09;10.05;;;9.10;;
8191;SDS011;4137;49.764;8.652;2022-07-22T05:25:35;8.95;;;8.25;;
8191;SDS011;4137;49.764;8.652;2022-07-22T05:28:01;9.13;;;8.20;;
8191;SDS011;4137;49.764;8.652;2022-07-22T05:30:27;8.15;;;7.45;;
8191;SDS011;4137;49.764;8.652;2022-07-22T05:32:53;8.45;;;7.75;;
8191;SDS011;4137;49.764;8.652;2022-07-22T05:35:19;8.93;;;8.23;;
8191;SDS011;4137;49.764;8.652;2022-07-22T05:37:46;9.57;;;8.77;;
8191;SDS011;4137;49.764;8.652;2022-07-22T05:40:12;15.50;;;9.88;;
8191;SDS011;4137;49.764;8.652;2022-07-22T05:42:39;10.32;;;9.48;;
8191;SDS011;4137;49.764;8.652;2022-07-22T05:45:05;10.45;;;9.52;;
8191;SDS011;4137;49.764;8.652;2022-07-22T05:47:31;10.15;;;9.35;;
8191;SDS011;4137;49.764;8.652;2022-07-22T05:49:57;9.88;;;8.98;;
8191;SDS011;4137;49.764;8.652;2022-07-22T05:52:23;10.10;;;8.38;;
8191;SDS011;4137;49.764;8.652;2022-07-22T05:54:49;9.27;;;8.57;;
8191;SDS011;4137;49.764;8.652;2022-07-22T05:57:15;9.13;;;8.40;;
8191;SDS011;4137;49.764;8.652;2022-07-22T05:59:41;10.77;;;9.13;;
8191;SDS011;4137;49.764;8.652;2022-07-22T06:02:07;8.40;;;7.90;;
8191;SDS011;4137;49.764;8.652;2022-07-22T06:04:33;8.32;;;7.82;;
8191;SDS011;4137;49.764;8.652;2022-07-22T06:06:59;8.32;;;7.72;;
8191;SDS011;4137;49.764;8.652;2022-07-22T06:09:26;7.35;;;6.75;;
8191;SDS011;4137;49.764;8.652;2022-07-22T06:11:52;7.55;;;6.85;;
8191;SDS011;4137;49.764;8.652;2022-07-22T06:14:18;7.35;;;6.78;;
8191;SDS011;4137;49.764;8.652;2022-07-22T06:16:44;8.02;;;7.22;;
8191;SDS011;4137;49.764;8.652;2022-07-22T06:19:10;7.18;;;6.55;;
8191;SDS011;4137;49.764;8.652;2022-07-22T06:21:36;7.45;;;6.85;;
8191;SDS011;4137;49.764;8.652;2022-07-22T06:24:04;6.75;;;6.18;;
8191;SDS011;4137;49.764;8.652;2022-07-22T06:26:30;7.10;;;6.60;;
8191;SDS011;4137;49.764;8.652;2022-07-22T06:28:56;5.38;;;5.07;;
8191;SDS011;4137;49.764;8.652;2022-07-22T06:31:22;9.75;;;5.90;;
8191;SDS011;4137;49.764;8.652;2022-07-22T06:33:48;6.28;;;5.97;;
8191;SDS011;4137;49.764;8.652;2022-07-22T06:36:14;6.20;;;5.55;;
8191;SDS011;4137;49.764;8.652;2022-07-22T06:38:42;6.07;;;5.55;;
8191;SDS011;4137;49.764;8.652;2022-07-22T06:41:08;5.43;;;5.28;;
8191;SDS011;4137;49.764;8.652;2022-07-22T06:43:35;6.40;;;6.18;;
8191;SDS011;4137;49.764;8.652;2022-07-22T06:46:01;5.93;;;5.63;;
8191;SDS011;4137;49.764;8.652;2022-07-22T06:48:27;6.43;;;5.97;;
8191;SDS011;4137;49.764;8.652;2022-07-22T06:50:53;7.20;;;6.60;;
8191;SDS011;4137;49.764;8.652;2022-07-22T06:53:19;6.95;;;6.55;;
8191;SDS011;4137;49.764;8.652;2022-07-22T06:55:45;7.50;;;6.82;;
8191;SDS011;4137;49.764;8.652;2022-07-22T06:58:12;6.88;;;6.43;;
8191;SDS011;4137;49.764;8.652;2022-07-22T07:00:38;6.70;;;6.20;;
8191;SDS011;4137;49.764;8.652;2022-07-22T07:03:04;7.13;;;6.65;;
8191;SDS011;4137;49.764;8.652;2022-07-22T07:05:30;6.25;;;5.95;;
8191;SDS011;4137;49.764;8.652;2022-07-22T07:07:56;6.03;;;5.80;;
8191;SDS011;4137;49.764;8.652;2022-07-22T07:10:22;6.63;;;6.22;;
8191;SDS011;4137;49.764;8.652;2022-07-22T07:12:48;7.35;;;6.95;;
8191;SDS011;4137;49.764;8.652;2022-07-22T07:15:14;7.55;;;7.03;;
8191;SDS011;4137;49.764;8.652;2022-07-22T07:17:43;7.53;;;7.07;;
8191;SDS011;4137;49.764;8.652;2022-07-22T07:20:09;7.03;;;6.60;;
8191;SDS011;4137;49.764;8.652;2022-07-22T07:22:35;6.63;;;6.22;;
8191;SDS011;4137;49.764;8.652;2022-07-22T07:25:04;6.03;;;5.72;;
8191;SDS011;4137;49.764;8.652;2022-07-22T07:27:31;5.90;;;5.70;;
8191;SDS011;4137;49.764;8.652;2022-07-22T07:29:57;5.95;;;5.55;;
8191;SDS011;4137;49.764;8.652;2022-07-22T07:32:23;5.80;;;5.50;;
8191;SDS011;4137;49.764;8.652;2022-07-22T07:34:49;5.93;;;5.63;;
8191;SDS011;4137;49.764;8.652;2022-07-22T07:37:15;5.65;;;5.35;;
8191;SDS011;4137;49.764;8.652;2022-07-22T07:39:41;6.30;;;6.10;;
8191;SDS011;4137;49.764;8.652;2022-07-22T07:42:10;5.95;;;5.65;;
8191;SDS011;4137;49.764;8.652;2022-07-22T07:44:36;7.25;;;6.95;;
8191;SDS011;4137;49.764;8.652;2022-07-22T07:47:02;8.07;;;7.28;;
8191;SDS011;4137;49.764;8.652;2022-07-22T07:49:28;5.55;;;5.45;;
8191;SDS011;4137;49.764;8.652;2022-07-22T07:51:54;6.45;;;6.15;;
8191;SDS011;4137;49.764;8.652;2022-07-22T07:54:20;6.28;;;5.93;;
8191;SDS011;4137;49.764;8.652;2022-07-22T07:56:46;8.32;;;7.70;;
8191;SDS011;4137;49.764;8.652;2022-07-22T07:59:13;6.32;;;6.13;;
8191;SDS011;4137;49.764;8.652;2022-07-22T08:01:39;6.55;;;6.15;;
8191;SDS011;4137;49.764;8.652;2022-07-22T08:04:05;5.65;;;5.40;;
8191;SDS011;4137;49.764;8.652;2022-07-22T08:06:31;5.72;;;5.43;;
8191;SDS011;4137;49.764;8.652;2022-07-22T08:08:57;6.47;;;6.18;;
8191;SDS011;4137;49.764;8.652;2022-07-22T08:11:23;5.57;;;5.38;;
8191;SDS011;4137;49.764;8.652;2022-07-22T08:13:49;5.18;;;5.05;;
8191;SDS011;4137;49.764;8.652;2022-07-22T08:16:15;5.60;;;5.20;;
8191;SDS011;4137;49.764;8.652;2022-07-22T08:18:42;5.88;;;5.57;;
8191;SDS011;4137;49.764;8.652;2022-07-22T08:21:08;6.18;;;5.57;;
8191;SDS011;4137;49.764;8.652;2022-07-22T08:23:34;5.43;;;5.13;;
8191;SDS011;4137;49.764;8.652;2022-07-22T08:26:00;5.25;;;4.97;;
8191;SDS011;4137;49.764;8.652;2022-07-22T08:28:26;6.32;;;5.10;;
8191;SDS011;4137;49.764;8.652;2022-07-22T08:30:52;5.55;;;5.22;;
8191;SDS011;4137;49.764;8.652;2022-07-22T08:33:19;6.43;;;6.07;;
8191;SDS011;4137;49.764;8.652;2022-07-22T08:35:45;6.28;;;5.55;;
8191;SDS011;4137;49.764;8.652;2022-07-22T08:38:11;5.88;;;5.68;;
8191;SDS011;4137;49.764;8.652;2022-07-22T08:40:37;6.22;;;6.03;;
8191;SDS011;4137;49.764;8.652;2022-07-22T08:43:04;5.72;;;5.53;;
8191;SDS011;4137;49.764;8.652;2022-07-22T08:45:30;6.97;;;6.40;;
8191;SDS011;4137;49.764;8.652;2022-07-22T08:47:56;6.35;;;6.00;;
8191;SDS011;4137;49.764;8.652;2022-07-22T08:50:24;6.40;;;5.90;;
8191;SDS011;4137;49.764;8.652;2022-07-22T08:52:50;5.65;;;5.55;;
8191;SDS011;4137;49.764;8.652;2022-07-22T08:55:16;6.20;;;5.85;;
8191;SDS011;4137;49.764;8.652;2022-07-22T08:57:46;6.28;;;5.97;;
8191;SDS011;4137;49.764;8.652;2022-07-22T09:00:13;5.72;;;5.53;;
8191;SDS011;4137;49.764;8.652;2022-07-22T09:02:39;5.82;;;5.63;;
8191;SDS011;4137;49.764;8.652;2022-07-22T09:05:07;5.85;;;5.53;;
8191;SDS011;4137;49.764;8.652;2022-07-22T09:07:41;6.32;;;5.95;;
8191;SDS011;4137;49.764;8.652;2022-07-22T09:10:09;5.15;;;5.00;;
8191;SDS011;4137;49.764;8.652;2022-07-22T09:12:49;5.20;;;4.97;;
8191;SDS011;4137;49.764;8.652;2022-07-22T09:15:15;5.75;;;5.40;;
8191;SDS011;4137;49.764;8.652;2022-07-22T09:17:41;6.70;;;6.20;;
8191;SDS011;4137;49.764;8.652;2022-07-22T09:20:14;5.82;;;5.60;;
8191;SDS011;4137;49.764;8.652;2022-07-22T09:22:42;5.93;;;5.72;;
8191;SDS011;4137;49.764;8.652;2022-07-22T09:27:48;5.72;;;5.32;;
8191;SDS011;4137;49.764;8.652;2022-07-22T09:30:18;5.97;;;5.68;;
8191;SDS011;4137;49.764;8.652;2022-07-22T09:32:44;5.82;;;5.53;;
8191;SDS011;4137;49.764;8.652;2022-07-22T09:35:11;4.97;;;4.85;;
8191;SDS011;4137;49.764;8.652;2022-07-22T09:37:38;5.65;;;5.30;;
8191;SDS011;4137;49.764;8.652;2022-07-22T09:40:20;5.63;;;5.35;;
8191;SDS011;4137;49.764;8.652;2022-07-22T09:42:50;4.47;;;4.32;;
8191;SDS011;4137;49.764;8.652;2022-07-22T09:45:18;4.43;;;4.30;;
8191;SDS011;4137;49.764;8.652;2022-07-22T09:47:44;4.28;;;4.18;;
8191;SDS011;4137;49.764;8.652;2022-07-22T09:50:31;5.75;;;5.22;;
8191;SDS011;4137;49.764;8.652;2022-07-22T09:52:57;4.22;;;4.13;;
8191;SDS011;4137;49.764;8.652;2022-07-22T09:55:25;4.50;;;4.40;;
8191;SDS011;4137;49.764;8.652;2022-07-22T09:57:55;5.38;;;3.92;;
8191;SDS011;4137;49.764;8.652;2022-07-22T10:00:23;3.20;;;3.20;;
8191;SDS011;4137;49.764;8.652;2022-07-22T10:05:17;3.42;;;3.40;;
8191;SDS011;4137;49.764;8.652;2022-07-22T10:07:44;3.22;;;3.10;;
8191;SDS011;4137;49.764;8.652;2022-07-22T10:10:12;3.53;;;3.42;;
8191;SDS011;4137;49.764;8.652;2022-07-22T10:12:38;3.58;;;3.45;;
8191;SDS011;4137;49.764;8.652;2022-07-22T10:15:05;3.85;;;3.78;;
8191;SDS011;4137;49.764;8.652;2022-07-22T10:17:32;3.58;;;3.38;;
8191;SDS011;4137;49.764;8.652;2022-07-22T10:19:59;3.72;;;3.65;;
8191;SDS011;4137;49.764;8.652;2022-07-22T10:25:07;4.28;;;4.07;;
8191;SDS011;4137;49.764;8.652;2022-07-22T10:30:18;3.60;;;3.40;;
8191;SDS011;4137;49.764;8.652;2022-07-22T10:32:45;3.60;;;3.55;;
8191;SDS011;4137;49.764;8.652;2022-07-22T10:37:39;4.07;;;3.88;;
8191;SDS011;4137;49.764;8.652;2022-07-22T10:40:09;3.35;;;3.35;;
8191;SDS011;4137;49.764;8.652;2022-07-22T10:45:20;19.02;;;6.40;;
8191;SDS011;4137;49.764;8.652;2022-07-22T10:47:53;4.85;;;4.22;;
8191;SDS011;4137;49.764;8.652;2022-07-22T10:53:07;7.07;;;5.28;;
8191;SDS011;4137;49.764;8.652;2022-07-22T10:55:34;4.50;;;4.40;;
8191;SDS011;4137;49.764;8.652;2022-07-22T10:58:00;4.35;;;4.25;;
8191;SDS011;4137;49.764;8.652;2022-07-22T11:00:26;4.60;;;4.50;;
8191;SDS011;4137;49.764;8.652;2022-07-22T11:02:52;4.68;;;4.38;;
8191;SDS011;4137;49.764;8.652;2022-07-22T11:05:25;4.57;;;4.35;;
8191;SDS011;4137;49.764;8.652;2022-07-22T11:07:51;4.43;;;4.30;;
8191;SDS011;4137;49.764;8.652;2022-07-22T11:10:18;5.05;;;4.70;;
8191;SDS011;4137;49.764;8.652;2022-07-22T11:12:45;4.60;;;4.40;;
8191;SDS011;4137;49.764;8.652;2022-07-22T11:15:11;4.72;;;4.63;;
8191;SDS011;4137;49.764;8.652;2022-07-22T11:17:38;5.03;;;4.72;;
8191;SDS011;4137;49.764;8.652;2022-07-22T11:20:05;11.43;;;5.72;;
8191;SDS011;4137;49.764;8.652;2022-07-22T11:22:32;6.32;;;5.72;;
8191;SDS011;4137;49.764;8.652;2022-07-22T11:25:03;6.40;;;5.30;;
8191;SDS011;4137;49.764;8.652;2022-07-22T11:27:29;5.10;;;4.90;;
8191;SDS011;4137;49.764;8.652;2022-07-22T11:29:55;5.63;;;5.18;;
8191;SDS011;4137;49.764;8.652;2022-07-22T11:32:23;4.82;;;4.53;;
8191;SDS011;4137;49.764;8.652;2022-07-22T11:34:49;4.85;;;4.75;;
8191;SDS011;4137;49.764;8.652;2022-07-22T11:37:16;5.53;;;5.30;;
8191;SDS011;4137;49.764;8.652;2022-07-22T11:39:42;4.93;;;4.78;;
8191;SDS011;4137;49.764;8.652;2022-07-22T11:42:08;4.78;;;4.57;;
8191;SDS011;4137;49.764;8.652;2022-07-22T11:44:35;5.03;;;4.93;;
8191;SDS011;4137;49.764;8.652;2022-07-22T11:47:02;5.07;;;4.82;;
8191;SDS011;4137;49.764;8.652;2022-07-22T11:49:28;5.15;;;4.70;;
8191;SDS011;4137;49.764;8.652;2022-07-22T11:51:55;4.18;;;4.07;;
8191;SDS011;4137;49.764;8.652;2022-07-22T11:54:21;4.43;;;4.25;;
8191;SDS011;4137;49.764;8.652;2022-07-22T11:56:48;4.53;;;4.43;;
8191;SDS011;4137;49.764;8.652;2022-07-22T11:59:14;4.05;;;3.67;;
8191;SDS011;4137;49.764;8.652;2022-07-22T12:01:42;4.55;;;4.38;;
8191;SDS011;4137;49.764;8.652;2022-07-22T12:04:22;4.90;;;4.45;;
8191;SDS011;4137;49.764;8.652;2022-07-22T12:06:49;5.40;;;5.10;;
8191;SDS011;4137;49.764;8.652;2022-07-22T12:09:16;4.20;;;3.95;;
8191;SDS011;4137;49.764;8.652;2022-07-22T12:11:44;3.80;;;3.80;;
8191;SDS011;4137;49.764;8.652;2022-07-22T12:14:14;4.25;;;4.15;;
8191;SDS011;4137;49.764;8.652;2022-07-22T12:16:41;4.38;;;4.20;;
8191;SDS011;4137;49.764;8.652;2022-07-22T12:19:09;3.60;;;3.60;;
8191;SDS011;4137;49.764;8.652;2022-07-22T12:21:36;4.32;;;4.13;;
8191;SDS011;4137;49.764;8.652;2022-07-22T12:24:03;10.43;;;4.05;;
8191;SDS011;4137;49.764;8.652;2022-07-22T12:27:04;3.83;;;3.67;;
8191;SDS011;4137;49.764;8.652;2022-07-22T12:29:26;4.18;;;4.07;;
8191;SDS011;4137;49.764;8.652;2022-07-22T12:32:00;3.88;;;3.88;;
8191;SDS011;4137;49.764;8.652;2022-07-22T12:40:10;4.05;;;3.85;;
8191;SDS011;4137;49.764;8.652;2022-07-22T12:42:38;4.18;;;3.97;;
8191;SDS011;4137;49.764;8.652;2022-07-22T12:45:05;4.20;;;4.00;;
8191;SDS011;4137;49.764;8.652;2022-07-22T12:50:21;3.92;;;3.75;;
8191;SDS011;4137;49.764;8.652;2022-07-22T12:52:48;3.78;;;3.63;;
8191;SDS011;4137;49.764;8.652;2022-07-22T12:55:14;3.75;;;3.65;;
8191;SDS011;4137;49.764;8.652;2022-07-22T12:57:40;4.47;;;4.28;;
8191;SDS011;4137;49.764;8.652;2022-07-22T13:00:07;5.25;;;4.22;;
8191;SDS011;4137;49.764;8.652;2022-07-22T13:02:33;4.80;;;4.60;;
8191;SDS011;4137;49.764;8.652;2022-07-22T13:04:59;4.30;;;4.10;;
8191;SDS011;4137;49.764;8.652;2022-07-22T13:07:25;4.45;;;4.38;;
8191;SDS011;4137;49.764;8.652;2022-07-22T13:09:52;4.30;;;4.10;;
8191;SDS011;4137;49.764;8.652;2022-07-22T13:12:18;4.50;;;4.20;;
8191;SDS011;4137;49.764;8.652;2022-07-22T13:14:44;5.03;;;4.78;;
8191;SDS011;4137;49.764;8.652;2022-07-22T13:17:10;4.30;;;4.20;;
8191;SDS011;4137;49.764;8.652;2022-07-22T13:19:37;4.50;;;4.40;;
8191;SDS011;4137;49.764;8.652;2022-07-22T13:22:03;4.72;;;4.63;;
8191;SDS011;4137;49.764;8.652;2022-07-22T13:24:29;4.15;;;4.05;;
8191;SDS011;4137;49.764;8.652;2022-07-22T13:26:55;16.45;;;6.13;;
8191;SDS011;4137;49.764;8.652;2022-07-22T13:29:21;4.63;;;4.40;;
8191;SDS011;4137;49.764;8.652;2022-07-22T13:31:47;4.25;;;4.03;;
8191;SDS011;4137;49.764;8.652;2022-07-22T13:34:14;4.35;;;4.15;;
8191;SDS011;4137;49.764;8.652;2022-07-22T13:36:40;4.28;;;4.18;;
8191;SDS011;4137;49.764;8.652;2022-07-22T13:39:06;4.57;;;4.30;;
8191;SDS011;4137;49.764;8.652;2022-07-22T13:41:32;4.80;;;4.60;;
8191;SDS011;4137;49.764;8.652;2022-07-22T13:43:58;4.97;;;4.78;;
8191;SDS011;4137;49.764;8.652;2022-07-22T13:46:24;3.92;;;3.83;;
8191;SDS011;4137;49.764;8.652;2022-07-22T13:48:50;5.25;;;4.90;;
8191;SDS011;4137;49.764;8.652;2022-07-22T13:51:18;5.47;;;4.95;;
8191;SDS011;4137;49.764;8.652;2022-07-22T13:53:44;4.97;;;4.85;;
8191;SDS011;4137;49.764;8.652;2022-07-22T13:56:10;4.68;;;4.47;;
8191;SDS011;4137;49.764;8.652;2022-07-22T13:58:37;5.07;;;4.88;;
8191;SDS011;4137;49.764;8.652;2022-07-22T14:01:05;5.63;;;5.13;;
8191;SDS011;4137;49.764;8.652;2022-07-22T14:03:32;5.50;;;5.10;;
8191;SDS011;4137;49.764;8.652;2022-07-22T14:05:58;5.53;;;5.30;;
8191;SDS011;4137;49.764;8.652;2022-07-22T14:08:24;4.68;;;4.50;;
8191;SDS011;4137;49.764;8.652;2022-07-22T14:10:50;5.50;;;5.30;;
8191;SDS011;4137;49.764;8.652;2022-07-22T14:13:16;5.65;;;5.38;;
8191;SDS011;4137;49.764;8.652;2022-07-22T14:15:42;5.43;;;5.13;;
8191;SDS011;4137;49.764;8.652;2022-07-22T14:18:08;5.55;;;5.22;;
8191;SDS011;4137;49.764;8.652;2022-07-22T14:20:35;5.95;;;5.45;;
8191;SDS011;4137;49.764;8.652;2022-07-22T14:23:01;5.38;;;5.10;;
8191;SDS011;4137;49.764;8.652;2022-07-22T14:25:29;5.00;;;4.90;;
8191;SDS011;4137;49.764;8.652;2022-07-22T14:27:55;5.55;;;4.93;;
8191;SDS011;4137;49.764;8.652;2022-07-22T14:30:21;5.50;;;5.20;;
8191;SDS011;4137;49.764;8.652;2022-07-22T14:32:47;5.28;;;4.95;;
8191;SDS011;4137;49.764;8.652;2022-07-22T14:35:13;4.78;;;4.57;;
8191;SDS011;4137;49.764;8.652;2022-07-22T14:37:40;4.95;;;4.85;;
8191;SDS011;4137;49.764;8.652;2022-07-22T14:40:06;4.93;;;4.72;;
8191;SDS011;4137;49.764;8.652;2022-07-22T14:42:32;5.05;;;4.85;;
8191;SDS011;4137;49.764;8.652;2022-07-22T14:44:58;5.72;;;5.53;;
8191;SDS011;4137;49.764;8.652;2022-07-22T14:47:24;5.10;;;5.00;;
8191;SDS011;4137;49.764;8.652;2022-07-22T14:49:51;5.85;;;5.47;;
8191;SDS011;4137;49.764;8.652;2022-07-22T14:52:17;5.70;;;5.35;;
8191;SDS011;4137;49.764;8.652;2022-07-22T14:54:43;5.90;;;5.35;;
8191;SDS011;4137;49.764;8.652;2022-07-22T14:57:09;5.20;;;5.00;;
8191;SDS011;4137;49.764;8.652;2022-07-22T14:59:35;5.32;;;5.13;;
8191;SDS011;4137;49.764;8.652;2022-07-22T15:02:02;5.00;;;4.65;;
8191;SDS011;4137;49.764;8.652;2022-07-22T15:04:28;5.25;;;4.88;;
8191;SDS011;4137;49.764;8.652;2022-07-22T15:06:54;5.07;;;4.85;;
8191;SDS011;4137;49.764;8.652;2022-07-22T15:09:20;4.95;;;4.85;;
8191;SDS011;4137;49.764;8.652;2022-07-22T15:11:46;5.53;;;5.00;;
8191;SDS011;4137;49.764;8.652;2022-07-22T15:14:12;5.50;;;5.07;;
8191;SDS011;4137;49.764;8.652;2022-07-22T15:16:38;6.05;;;5.72;;
8191;SDS011;4137;49.764;8.652;2022-07-22T15:19:04;5.78;;;5.32;;
8191;SDS011;4137;49.764;8.652;2022-07-22T15:21:30;4.80;;;4.43;;
8191;SDS011;4137;49.764;8.652;2022-07-22T15:23:57;5.30;;;5.10;;
8191;SDS011;4137;49.764;8.652;2022-07-22T15:26:23;5.32;;;5.10;;
8191;SDS011;4137;49.764;8.652;2022-07-22T15:28:49;4.80;;;4.65;;
8191;SDS011;4137;49.764;8.652;2022-07-22T15:31:16;5.65;;;5.10;;
8191;SDS011;4137;49.764;8.652;2022-07-22T15:33:42;6.50;;;5.93;;
8191;SDS011;4137;49.764;8.652;2022-07-22T15:36:09;4.82;;;4.60;;